sensor_id;sensor_type;location;lat;lon;timestamp;P1;durP1;ratioP1;P2;durP2;ratioP2
14125;SDS011;7141;49.484;11.242;2022-07-11T00:02:02;3.23;;;1.87;;
14125;SDS011;7141;49.484;11.242;2022-07-11T00:04:29;5.10;;;1.43;;
14125;SDS011;7141;49.484;11.242;2022-07-11T00:06:55;2.13;;;1.27;;
14125;SDS011;7141;49.484;11.242;2022-07-11T00:09:21;4.03;;;1.23;;
14125;SDS011;7141;49.484;11.242;2022-07-11T00:11:47;2.33;;;1.40;;
14125;SDS011;7141;49.484;11.242;2022-07-11T00:14:14;3.67;;;1.53;;
14125;SDS011;7141;49.484;11.242;2022-07-11T00:16:40;3.57;;;1.93;;
14125;SDS011;7141;49.484;11.242;2022-07-11T00:19:06;5.97;;;1.60;;
14125;SDS011;7141;49.484;11.242;2022-07-11T00:21:32;3.23;;;1.50;;
14125;SDS011;7141;49.484;11.242;2022-07-11T00:24:01;3.53;;;1.87;;
14125;SDS011;7141;49.484;11.242;2022-07-11T00:26:27;2.93;;;1.40;;
14125;SDS011;7141;49.484;11.242;2022-07-11T00:28:53;3.87;;;1.40;;
14125;SDS011;7141;49.484;11.242;2022-07-11T00:31:19;2.87;;;1.50;;
14125;SDS011;7141;49.484;11.242;2022-07-11T00:33:45;2.53;;;1.30;;
14125;SDS011;7141;49.484;11.242;2022-07-11T00:36:11;6.13;;;2.87;;
14125;SDS011;7141;49.484;11.242;2022-07-11T00:38:37;5.93;;;2.07;;
14125;SDS011;7141;49.484;11.242;2022-07-11T00:41:03;3.90;;;1.70;;
14125;SDS011;7141;49.484;11.242;2022-07-11T00:43:36;4.20;;;1.60;;
14125;SDS011;7141;49.484;11.242;2022-07-11T00:46:03;3.10;;;1.37;;
14125;SDS011;7141;49.484;11.242;2022-07-11T00:48:29;6.13;;;1.83;;
14125;SDS011;7141;49.484;11.242;2022-07-11T00:50:55;4.60;;;1.43;;
14125;SDS011;7141;49.484;11.242;2022-07-11T00:53:22;2.70;;;1.30;;
14125;SDS011;7141;49.484;11.242;2022-07-11T00:55:48;4.23;;;1.73;;
14125;SDS011;7141;49.484;11.242;2022-07-11T00:58:14;3.20;;;1.47;;
14125;SDS011;7141;49.484;11.242;2022-07-11T01:00:40;2.43;;;1.27;;
14125;SDS011;7141;49.484;11.242;2022-07-11T01:03:06;1.97;;;1.20;;
14125;SDS011;7141;49.484;11.242;2022-07-11T01:05:32;4.17;;;1.70;;
14125;SDS011;7141;49.484;11.242;2022-07-11T01:07:58;2.70;;;1.40;;
14125;SDS011;7141;49.484;11.242;2022-07-11T01:10:25;4.70;;;1.47;;
14125;SDS011;7141;49.484;11.242;2022-07-11T01:12:51;1.47;;;1.20;;
14125;SDS011;7141;49.484;11.242;2022-07-11T01:15:17;4.30;;;1.20;;
14125;SDS011;7141;49.484;11.242;2022-07-11T01:17:43;2.23;;;1.13;;
14125;SDS011;7141;49.484;11.242;2022-07-11T01:20:09;2.50;;;1.43;;
14125;SDS011;7141;49.484;11.242;2022-07-11T01:22:39;1.67;;;1.27;;
14125;SDS011;7141;49.484;11.242;2022-07-11T01:25:06;2.83;;;1.23;;
14125;SDS011;7141;49.484;11.242;2022-07-11T01:27:32;3.00;;;1.30;;
14125;SDS011;7141;49.484;11.242;2022-07-11T01:29:58;2.20;;;1.30;;
14125;SDS011;7141;49.484;11.242;2022-07-11T01:32:24;3.63;;;1.20;;
14125;SDS011;7141;49.484;11.242;2022-07-11T01:34:50;2.03;;;1.37;;
14125;SDS011;7141;49.484;11.242;2022-07-11T01:37:16;1.57;;;1.07;;
14125;SDS011;7141;49.484;11.242;2022-07-11T01:39:42;2.97;;;1.57;;
14125;SDS011;7141;49.484;11.242;2022-07-11T01:42:08;2.23;;;1.60;;
14125;SDS011;7141;49.484;11.242;2022-07-11T01:44:34;3.47;;;1.67;;
14125;SDS011;7141;49.484;11.242;2022-07-11T01:47:00;2.47;;;1.17;;
14125;SDS011;7141;49.484;11.242;2022-07-11T01:49:26;2.03;;;1.23;;
14125;SDS011;7141;49.484;11.242;2022-07-11T01:51:55;2.43;;;1.07;;
14125;SDS011;7141;49.484;11.242;2022-07-11T01:54:21;3.37;;;1.27;;
14125;SDS011;7141;49.484;11.242;2022-07-11T01:56:47;3.40;;;1.30;;
14125;SDS011;7141;49.484;11.242;2022-07-11T01:59:13;2.70;;;1.30;;
14125;SDS011;7141;49.484;11.242;2022-07-11T02:01:39;4.30;;;1.40;;
14125;SDS011;7141;49.484;11.242;2022-07-11T02:04:05;4.20;;;1.50;;
14125;SDS011;7141;49.484;11.242;2022-07-11T02:06:31;4.03;;;1.40;;
14125;SDS011;7141;49.484;11.242;2022-07-11T02:08:57;3.00;;;1.10;;
14125;SDS011;7141;49.484;11.242;2022-07-11T02:11:23;2.87;;;1.20;;
14125;SDS011;7141;49.484;11.242;2022-07-11T02:13:49;2.73;;;1.43;;
14125;SDS011;7141;49.484;11.242;2022-07-11T02:16:16;2.73;;;1.27;;
14125;SDS011;7141;49.484;11.242;2022-07-11T02:18:42;6.60;;;1.53;;
14125;SDS011;7141;49.484;11.242;2022-07-11T02:21:08;3.50;;;1.30;;
14125;SDS011;7141;49.484;11.242;2022-07-11T02:23:34;2.33;;;1.20;;
14125;SDS011;7141;49.484;11.242;2022-07-11T02:26:00;2.67;;;1.40;;
14125;SDS011;7141;49.484;11.242;2022-07-11T02:28:27;3.10;;;1.30;;
14125;SDS011;7141;49.484;11.242;2022-07-11T02:30:53;1.80;;;1.20;;
14125;SDS011;7141;49.484;11.242;2022-07-11T02:33:19;3.97;;;1.17;;
14125;SDS011;7141;49.484;11.242;2022-07-11T02:35:45;6.57;;;1.87;;
14125;SDS011;7141;49.484;11.242;2022-07-11T02:38:11;2.03;;;1.27;;
14125;SDS011;7141;49.484;11.242;2022-07-11T02:40:39;2.97;;;1.30;;
14125;SDS011;7141;49.484;11.242;2022-07-11T02:43:04;2.33;;;1.40;;
14125;SDS011;7141;49.484;11.242;2022-07-11T02:45:31;2.73;;;1.37;;
14125;SDS011;7141;49.484;11.242;2022-07-11T02:47:57;2.87;;;1.53;;
14125;SDS011;7141;49.484;11.242;2022-07-11T02:50:23;5.63;;;1.80;;
14125;SDS011;7141;49.484;11.242;2022-07-11T02:52:49;2.97;;;1.30;;
14125;SDS011;7141;49.484;11.242;2022-07-11T02:55:15;3.00;;;1.30;;
14125;SDS011;7141;49.484;11.242;2022-07-11T02:57:41;4.83;;;1.10;;
14125;SDS011;7141;49.484;11.242;2022-07-11T03:00:08;3.07;;;1.70;;
14125;SDS011;7141;49.484;11.242;2022-07-11T03:02:35;4.97;;;3.30;;
14125;SDS011;7141;49.484;11.242;2022-07-11T03:05:01;4.10;;;3.70;;
14125;SDS011;7141;49.484;11.242;2022-07-11T03:07:27;3.03;;;1.67;;
14125;SDS011;7141;49.484;11.242;2022-07-11T03:09:53;1.97;;;1.20;;
14125;SDS011;7141;49.484;11.242;2022-07-11T03:12:19;3.63;;;1.50;;
14125;SDS011;7141;49.484;11.242;2022-07-11T03:14:46;3.00;;;1.40;;
14125;SDS011;7141;49.484;11.242;2022-07-11T03:17:12;3.37;;;1.60;;
14125;SDS011;7141;49.484;11.242;2022-07-11T03:19:38;2.50;;;1.40;;
14125;SDS011;7141;49.484;11.242;2022-07-11T03:22:04;5.30;;;2.60;;
14125;SDS011;7141;49.484;11.242;2022-07-11T03:24:30;3.07;;;1.90;;
14125;SDS011;7141;49.484;11.242;2022-07-11T03:26:56;3.13;;;1.60;;
14125;SDS011;7141;49.484;11.242;2022-07-11T03:29:22;2.83;;;1.40;;
14125;SDS011;7141;49.484;11.242;2022-07-11T03:31:48;3.73;;;1.60;;
14125;SDS011;7141;49.484;11.242;2022-07-11T03:34:14;3.43;;;2.00;;
14125;SDS011;7141;49.484;11.242;2022-07-11T03:36:40;2.57;;;1.60;;
14125;SDS011;7141;49.484;11.242;2022-07-11T03:39:06;5.23;;;1.50;;
14125;SDS011;7141;49.484;11.242;2022-07-11T03:41:32;4.03;;;1.80;;
14125;SDS011;7141;49.484;11.242;2022-07-11T03:43:58;2.97;;;1.77;;
14125;SDS011;7141;49.484;11.242;2022-07-11T03:46:24;3.00;;;1.70;;
14125;SDS011;7141;49.484;11.242;2022-07-11T03:48:50;2.83;;;1.83;;
14125;SDS011;7141;49.484;11.242;2022-07-11T03:51:16;2.83;;;1.63;;
14125;SDS011;7141;49.484;11.242;2022-07-11T03:53:42;3.10;;;1.87;;
14125;SDS011;7141;49.484;11.242;2022-07-11T03:56:09;3.70;;;1.90;;
14125;SDS011;7141;49.484;11.242;2022-07-11T03:58:35;4.03;;;1.77;;
14125;SDS011;7141;49.484;11.242;2022-07-11T04:01:01;1.47;;;1.37;;
14125;SDS011;7141;49.484;11.242;2022-07-11T04:03:27;3.07;;;1.73;;
14125;SDS011;7141;49.484;11.242;2022-07-11T04:05:53;3.20;;;1.60;;
14125;SDS011;7141;49.484;11.242;2022-07-11T04:08:19;2.77;;;1.80;;
14125;SDS011;7141;49.484;11.242;2022-07-11T04:10:45;3.10;;;1.70;;
14125;SDS011;7141;49.484;11.242;2022-07-11T04:13:11;2.40;;;1.50;;
14125;SDS011;7141;49.484;11.242;2022-07-11T04:15:37;1.33;;;1.23;;
14125;SDS011;7141;49.484;11.242;2022-07-11T04:18:03;3.37;;;1.40;;
14125;SDS011;7141;49.484;11.242;2022-07-11T04:20:29;1.33;;;1.23;;
14125;SDS011;7141;49.484;11.242;2022-07-11T04:22:55;3.43;;;1.40;;
14125;SDS011;7141;49.484;11.242;2022-07-11T04:25:21;2.20;;;1.40;;
14125;SDS011;7141;49.484;11.242;2022-07-11T04:27:47;4.27;;;1.70;;
14125;SDS011;7141;49.484;11.242;2022-07-11T04:30:13;1.90;;;1.20;;
14125;SDS011;7141;49.484;11.242;2022-07-11T04:32:39;1.80;;;1.17;;
14125;SDS011;7141;49.484;11.242;2022-07-11T04:35:05;1.30;;;0.97;;
14125;SDS011;7141;49.484;11.242;2022-07-11T04:37:32;2.10;;;1.13;;
14125;SDS011;7141;49.484;11.242;2022-07-11T04:39:57;1.10;;;0.97;;
14125;SDS011;7141;49.484;11.242;2022-07-11T04:42:24;1.13;;;1.00;;
14125;SDS011;7141;49.484;11.242;2022-07-11T04:44:49;2.10;;;1.00;;
14125;SDS011;7141;49.484;11.242;2022-07-11T04:47:15;1.73;;;1.00;;
14125;SDS011;7141;49.484;11.242;2022-07-11T04:49:41;1.40;;;1.00;;
14125;SDS011;7141;49.484;11.242;2022-07-11T04:52:11;2.00;;;0.90;;
14125;SDS011;7141;49.484;11.242;2022-07-11T04:54:37;2.03;;;1.10;;
14125;SDS011;7141;49.484;11.242;2022-07-11T04:57:03;1.50;;;0.90;;
14125;SDS011;7141;49.484;11.242;2022-07-11T04:59:29;2.70;;;0.90;;
14125;SDS011;7141;49.484;11.242;2022-07-11T05:01:55;2.70;;;0.90;;
14125;SDS011;7141;49.484;11.242;2022-07-11T05:04:21;1.90;;;1.00;;
14125;SDS011;7141;49.484;11.242;2022-07-11T05:06:48;1.20;;;0.83;;
14125;SDS011;7141;49.484;11.242;2022-07-11T05:09:14;2.93;;;1.30;;
14125;SDS011;7141;49.484;11.242;2022-07-11T05:11:40;1.97;;;0.70;;
14125;SDS011;7141;49.484;11.242;2022-07-11T05:14:06;1.00;;;0.90;;
14125;SDS011;7141;49.484;11.242;2022-07-11T05:16:32;1.97;;;0.90;;
14125;SDS011;7141;49.484;11.242;2022-07-11T05:18:58;1.93;;;0.97;;
14125;SDS011;7141;49.484;11.242;2022-07-11T05:21:24;1.70;;;1.17;;
14125;SDS011;7141;49.484;11.242;2022-07-11T05:23:50;2.13;;;0.97;;
14125;SDS011;7141;49.484;11.242;2022-07-11T05:26:16;2.63;;;1.00;;
14125;SDS011;7141;49.484;11.242;2022-07-11T05:28:42;2.53;;;1.10;;
14125;SDS011;7141;49.484;11.242;2022-07-11T05:31:08;1.67;;;1.00;;
14125;SDS011;7141;49.484;11.242;2022-07-11T05:33:35;1.63;;;1.10;;
14125;SDS011;7141;49.484;11.242;2022-07-11T05:36:01;2.80;;;1.20;;
14125;SDS011;7141;49.484;11.242;2022-07-11T05:38:28;3.43;;;1.40;;
14125;SDS011;7141;49.484;11.242;2022-07-11T05:40:54;1.77;;;1.20;;
14125;SDS011;7141;49.484;11.242;2022-07-11T05:43:20;1.37;;;1.10;;
14125;SDS011;7141;49.484;11.242;2022-07-11T05:45:48;3.77;;;1.10;;
14125;SDS011;7141;49.484;11.242;2022-07-11T05:48:14;3.80;;;2.33;;
14125;SDS011;7141;49.484;11.242;2022-07-11T05:50:40;2.10;;;1.10;;
14125;SDS011;7141;49.484;11.242;2022-07-11T05:53:06;1.20;;;1.10;;
14125;SDS011;7141;49.484;11.242;2022-07-11T05:55:33;1.23;;;1.10;;
14125;SDS011;7141;49.484;11.242;2022-07-11T05:57:59;1.70;;;1.10;;
14125;SDS011;7141;49.484;11.242;2022-07-11T06:00:25;2.27;;;1.30;;
14125;SDS011;7141;49.484;11.242;2022-07-11T06:02:52;1.67;;;1.43;;
14125;SDS011;7141;49.484;11.242;2022-07-11T06:05:18;2.33;;;1.50;;
14125;SDS011;7141;49.484;11.242;2022-07-11T06:07:44;4.53;;;1.83;;
14125;SDS011;7141;49.484;11.242;2022-07-11T06:10:29;1.23;;;1.10;;
14125;SDS011;7141;49.484;11.242;2022-07-11T06:12:57;2.33;;;1.43;;
14125;SDS011;7141;49.484;11.242;2022-07-11T06:15:23;2.20;;;1.50;;
14125;SDS011;7141;49.484;11.242;2022-07-11T06:17:49;3.10;;;1.30;;
14125;SDS011;7141;49.484;11.242;2022-07-11T06:20:15;1.40;;;1.13;;
14125;SDS011;7141;49.484;11.242;2022-07-11T06:22:41;2.97;;;1.50;;
14125;SDS011;7141;49.484;11.242;2022-07-11T06:25:07;2.07;;;1.77;;
14125;SDS011;7141;49.484;11.242;2022-07-11T06:27:34;3.57;;;1.60;;
14125;SDS011;7141;49.484;11.242;2022-07-11T06:30:01;2.67;;;1.43;;
14125;SDS011;7141;49.484;11.242;2022-07-11T06:32:26;4.97;;;1.63;;
14125;SDS011;7141;49.484;11.242;2022-07-11T06:34:53;2.73;;;1.50;;
14125;SDS011;7141;49.484;11.242;2022-07-11T06:37:19;2.30;;;1.60;;
14125;SDS011;7141;49.484;11.242;2022-07-11T06:39:45;1.57;;;1.40;;
14125;SDS011;7141;49.484;11.242;2022-07-11T06:42:11;2.67;;;1.37;;
14125;SDS011;7141;49.484;11.242;2022-07-11T06:44:37;2.30;;;1.40;;
14125;SDS011;7141;49.484;11.242;2022-07-11T06:47:03;2.27;;;1.50;;
14125;SDS011;7141;49.484;11.242;2022-07-11T06:49:30;7.30;;;3.67;;
14125;SDS011;7141;49.484;11.242;2022-07-11T06:51:56;3.37;;;2.03;;
14125;SDS011;7141;49.484;11.242;2022-07-11T06:54:22;1.83;;;1.37;;
14125;SDS011;7141;49.484;11.242;2022-07-11T06:56:48;1.70;;;1.23;;
14125;SDS011;7141;49.484;11.242;2022-07-11T06:59:14;2.10;;;1.30;;
14125;SDS011;7141;49.484;11.242;2022-07-11T07:01:40;3.10;;;1.53;;
14125;SDS011;7141;49.484;11.242;2022-07-11T07:04:07;2.13;;;1.40;;
14125;SDS011;7141;49.484;11.242;2022-07-11T07:06:33;1.93;;;1.47;;
14125;SDS011;7141;49.484;11.242;2022-07-11T07:08:59;1.80;;;1.40;;
14125;SDS011;7141;49.484;11.242;2022-07-11T07:11:28;1.27;;;1.13;;
14125;SDS011;7141;49.484;11.242;2022-07-11T07:13:54;1.80;;;1.37;;
14125;SDS011;7141;49.484;11.242;2022-07-11T07:16:20;2.03;;;1.50;;
14125;SDS011;7141;49.484;11.242;2022-07-11T07:18:46;3.60;;;1.43;;
14125;SDS011;7141;49.484;11.242;2022-07-11T07:21:13;1.50;;;1.27;;
14125;SDS011;7141;49.484;11.242;2022-07-11T07:23:39;1.83;;;1.17;;
14125;SDS011;7141;49.484;11.242;2022-07-11T07:26:05;1.83;;;1.33;;
14125;SDS011;7141;49.484;11.242;2022-07-11T07:28:31;1.03;;;1.03;;
14125;SDS011;7141;49.484;11.242;2022-07-11T07:30:57;1.53;;;1.20;;
14125;SDS011;7141;49.484;11.242;2022-07-11T07:33:24;1.60;;;1.30;;
14125;SDS011;7141;49.484;11.242;2022-07-11T07:35:50;2.30;;;1.17;;
14125;SDS011;7141;49.484;11.242;2022-07-11T07:38:16;1.20;;;1.03;;
14125;SDS011;7141;49.484;11.242;2022-07-11T07:40:42;1.60;;;1.10;;
14125;SDS011;7141;49.484;11.242;2022-07-11T07:43:08;2.50;;;1.20;;
14125;SDS011;7141;49.484;11.242;2022-07-11T07:45:35;1.30;;;1.20;;
14125;SDS011;7141;49.484;11.242;2022-07-11T07:48:01;1.43;;;1.20;;
14125;SDS011;7141;49.484;11.242;2022-07-11T07:50:27;2.53;;;1.23;;
14125;SDS011;7141;49.484;11.242;2022-07-11T07:52:53;3.03;;;1.30;;
14125;SDS011;7141;49.484;11.242;2022-07-11T07:55:19;1.60;;;1.30;;
14125;SDS011;7141;49.484;11.242;2022-07-11T07:57:45;2.00;;;0.77;;
14125;SDS011;7141;49.484;11.242;2022-07-11T08:00:11;2.43;;;1.30;;
14125;SDS011;7141;49.484;11.242;2022-07-11T08:02:56;2.40;;;1.23;;
14125;SDS011;7141;49.484;11.242;2022-07-11T08:05:22;1.40;;;1.10;;
14125;SDS011;7141;49.484;11.242;2022-07-11T08:07:48;1.77;;;1.10;;
14125;SDS011;7141;49.484;11.242;2022-07-11T08:10:14;1.43;;;1.00;;
14125;SDS011;7141;49.484;11.242;2022-07-11T08:12:40;1.93;;;1.63;;
14125;SDS011;7141;49.484;11.242;2022-07-11T08:15:06;1.37;;;1.03;;
14125;SDS011;7141;49.484;11.242;2022-07-11T08:17:32;2.73;;;0.93;;
14125;SDS011;7141;49.484;11.242;2022-07-11T08:19:58;0.80;;;0.80;;
14125;SDS011;7141;49.484;11.242;2022-07-11T08:22:24;0.80;;;0.80;;
14125;SDS011;7141;49.484;11.242;2022-07-11T08:24:50;1.13;;;1.03;;
14125;SDS011;7141;49.484;11.242;2022-07-11T08:27:16;1.47;;;1.17;;
14125;SDS011;7141;49.484;11.242;2022-07-11T08:29:42;0.97;;;0.90;;
14125;SDS011;7141;49.484;11.242;2022-07-11T08:32:09;0.80;;;0.80;;
14125;SDS011;7141;49.484;11.242;2022-07-11T08:34:36;1.23;;;0.90;;
14125;SDS011;7141;49.484;11.242;2022-07-11T08:37:02;1.67;;;1.00;;
14125;SDS011;7141;49.484;11.242;2022-07-11T08:39:28;0.83;;;0.83;;
14125;SDS011;7141;49.484;11.242;2022-07-11T08:41:54;0.70;;;0.70;;
14125;SDS011;7141;49.484;11.242;2022-07-11T08:44:20;1.10;;;1.00;;
14125;SDS011;7141;49.484;11.242;2022-07-11T08:46:46;1.00;;;1.00;;
14125;SDS011;7141;49.484;11.242;2022-07-11T08:49:13;2.17;;;1.30;;
14125;SDS011;7141;49.484;11.242;2022-07-11T08:51:39;1.20;;;1.10;;
14125;SDS011;7141;49.484;11.242;2022-07-11T08:54:06;1.43;;;0.90;;
14125;SDS011;7141;49.484;11.242;2022-07-11T08:56:32;1.40;;;1.03;;
14125;SDS011;7141;49.484;11.242;2022-07-11T08:58:58;0.80;;;0.80;;
14125;SDS011;7141;49.484;11.242;2022-07-11T09:01:31;2.10;;;1.40;;
14125;SDS011;7141;49.484;11.242;2022-07-11T09:03:58;0.93;;;0.70;;
14125;SDS011;7141;49.484;11.242;2022-07-11T09:06:24;1.37;;;0.87;;
14125;SDS011;7141;49.484;11.242;2022-07-11T09:08:50;1.20;;;0.67;;
14125;SDS011;7141;49.484;11.242;2022-07-11T09:11:16;1.00;;;0.90;;
14125;SDS011;7141;49.484;11.242;2022-07-11T09:13:42;2.07;;;0.97;;
14125;SDS011;7141;49.484;11.242;2022-07-11T09:16:08;3.17;;;1.90;;
14125;SDS011;7141;49.484;11.242;2022-07-11T09:18:35;1.40;;;1.30;;
14125;SDS011;7141;49.484;11.242;2022-07-11T09:23:46;2.63;;;2.00;;
14125;SDS011;7141;49.484;11.242;2022-07-11T09:26:31;1.67;;;1.17;;
14125;SDS011;7141;49.484;11.242;2022-07-11T09:28:58;1.63;;;0.97;;
14125;SDS011;7141;49.484;11.242;2022-07-11T09:31:26;2.90;;;1.90;;
14125;SDS011;7141;49.484;11.242;2022-07-11T09:34:03;3.00;;;1.73;;
14125;SDS011;7141;49.484;11.242;2022-07-11T09:36:36;2.00;;;1.20;;
14125;SDS011;7141;49.484;11.242;2022-07-11T09:39:02;3.80;;;2.77;;
14125;SDS011;7141;49.484;11.242;2022-07-11T09:41:35;3.47;;;1.57;;
14125;SDS011;7141;49.484;11.242;2022-07-11T09:44:08;1.23;;;1.10;;
14125;SDS011;7141;49.484;11.242;2022-07-11T09:46:34;1.10;;;1.00;;
14125;SDS011;7141;49.484;11.242;2022-07-11T09:49:01;1.03;;;0.90;;
14125;SDS011;7141;49.484;11.242;2022-07-11T09:51:27;0.97;;;0.93;;
14125;SDS011;7141;49.484;11.242;2022-07-11T09:53:56;1.10;;;0.90;;
14125;SDS011;7141;49.484;11.242;2022-07-11T09:59:01;0.87;;;0.80;;
14125;SDS011;7141;49.484;11.242;2022-07-11T10:01:28;1.63;;;0.90;;
14125;SDS011;7141;49.484;11.242;2022-07-11T10:03:54;1.33;;;0.73;;
14125;SDS011;7141;49.484;11.242;2022-07-11T10:06:20;0.80;;;0.80;;
14125;SDS011;7141;49.484;11.242;2022-07-11T10:08:50;1.93;;;0.90;;
14125;SDS011;7141;49.484;11.242;2022-07-11T10:11:16;1.07;;;0.97;;
14125;SDS011;7141;49.484;11.242;2022-07-11T10:13:42;1.10;;;0.90;;
14125;SDS011;7141;49.484;11.242;2022-07-11T10:16:15;1.20;;;0.80;;
14125;SDS011;7141;49.484;11.242;2022-07-11T10:18:47;1.50;;;0.70;;
14125;SDS011;7141;49.484;11.242;2022-07-11T10:21:24;2.20;;;1.30;;
14125;SDS011;7141;49.484;11.242;2022-07-11T10:23:54;0.83;;;0.70;;
14125;SDS011;7141;49.484;11.242;2022-07-11T10:28:53;1.10;;;0.80;;
14125;SDS011;7141;49.484;11.242;2022-07-11T10:31:20;0.70;;;0.70;;
14125;SDS011;7141;49.484;11.242;2022-07-11T10:33:58;0.87;;;0.80;;
14125;SDS011;7141;49.484;11.242;2022-07-11T10:36:26;0.70;;;0.70;;
14125;SDS011;7141;49.484;11.242;2022-07-11T10:41:37;1.43;;;0.77;;
14125;SDS011;7141;49.484;11.242;2022-07-11T10:44:03;1.37;;;0.70;;
14125;SDS011;7141;49.484;11.242;2022-07-11T10:46:30;0.50;;;0.50;;
14125;SDS011;7141;49.484;11.242;2022-07-11T10:49:07;0.80;;;0.70;;
14125;SDS011;7141;49.484;11.242;2022-07-11T10:51:47;0.70;;;0.70;;
14125;SDS011;7141;49.484;11.242;2022-07-11T10:54:31;0.70;;;0.70;;
14125;SDS011;7141;49.484;11.242;2022-07-11T10:59:56;0.60;;;0.60;;
14125;SDS011;7141;49.484;11.242;2022-07-11T11:02:23;1.37;;;0.50;;
14125;SDS011;7141;49.484;11.242;2022-07-11T11:09:53;1.07;;;0.70;;
14125;SDS011;7141;49.484;11.242;2022-07-11T11:12:19;0.57;;;0.50;;
14125;SDS011;7141;49.484;11.242;2022-07-11T11:14:46;0.57;;;0.40;;
14125;SDS011;7141;49.484;11.242;2022-07-11T11:20:30;0.83;;;0.80;;
14125;SDS011;7141;49.484;11.242;2022-07-11T11:23:09;2.07;;;0.87;;
14125;SDS011;7141;49.484;11.242;2022-07-11T11:25:35;2.10;;;0.80;;
14125;SDS011;7141;49.484;11.242;2022-07-11T11:28:02;1.93;;;0.70;;
14125;SDS011;7141;49.484;11.242;2022-07-11T11:30:29;1.87;;;1.07;;
14125;SDS011;7141;49.484;11.242;2022-07-11T11:32:55;0.70;;;0.50;;
14125;SDS011;7141;49.484;11.242;2022-07-11T11:35:21;0.80;;;0.73;;
14125;SDS011;7141;49.484;11.242;2022-07-11T11:37:48;0.60;;;0.60;;
14125;SDS011;7141;49.484;11.242;2022-07-11T11:40:14;1.23;;;1.00;;
14125;SDS011;7141;49.484;11.242;2022-07-11T11:42:40;0.60;;;0.60;;
14125;SDS011;7141;49.484;11.242;2022-07-11T11:45:06;0.77;;;0.60;;
14125;SDS011;7141;49.484;11.242;2022-07-11T11:47:32;0.57;;;0.57;;
14125;SDS011;7141;49.484;11.242;2022-07-11T11:50:01;0.40;;;0.40;;
14125;SDS011;7141;49.484;11.242;2022-07-11T11:52:27;1.90;;;0.40;;
14125;SDS011;7141;49.484;11.242;2022-07-11T11:54:54;0.73;;;0.30;;
14125;SDS011;7141;49.484;11.242;2022-07-11T11:57:21;0.20;;;0.20;;
14125;SDS011;7141;49.484;11.242;2022-07-11T11:59:47;2.00;;;1.40;;
14125;SDS011;7141;49.484;11.242;2022-07-11T12:02:20;1.03;;;0.37;;
14125;SDS011;7141;49.484;11.242;2022-07-11T12:04:46;0.40;;;0.40;;
14125;SDS011;7141;49.484;11.242;2022-07-11T12:07:12;0.27;;;0.27;;
14125;SDS011;7141;49.484;11.242;2022-07-11T12:09:38;1.03;;;0.80;;
14125;SDS011;7141;49.484;11.242;2022-07-11T12:12:21;0.20;;;0.20;;
14125;SDS011;7141;49.484;11.242;2022-07-11T12:15:06;0.50;;;0.50;;
14125;SDS011;7141;49.484;11.242;2022-07-11T12:17:33;1.00;;;0.80;;
14125;SDS011;7141;49.484;11.242;2022-07-11T12:20:00;0.30;;;0.30;;
14125;SDS011;7141;49.484;11.242;2022-07-11T12:22:26;0.50;;;0.50;;
14125;SDS011;7141;49.484;11.242;2022-07-11T12:24:52;1.40;;;1.20;;
14125;SDS011;7141;49.484;11.242;2022-07-11T12:29:45;0.50;;;0.50;;
14125;SDS011;7141;49.484;11.242;2022-07-11T12:32:15;0.40;;;0.40;;
14125;SDS011;7141;49.484;11.242;2022-07-11T12:34:42;1.10;;;1.00;;
14125;SDS011;7141;49.484;11.242;2022-07-11T12:37:10;0.57;;;0.57;;
14125;SDS011;7141;49.484;11.242;2022-07-11T12:39:38;0.80;;;0.60;;
14125;SDS011;7141;49.484;11.242;2022-07-11T12:45:03;1.27;;;0.50;;
14125;SDS011;7141;49.484;11.242;2022-07-11T12:50:15;0.63;;;0.40;;
14125;SDS011;7141;49.484;11.242;2022-07-11T12:52:42;0.50;;;0.50;;
14125;SDS011;7141;49.484;11.242;2022-07-11T12:55:22;0.53;;;0.50;;
14125;SDS011;7141;49.484;11.242;2022-07-11T13:00:26;0.40;;;0.40;;
14125;SDS011;7141;49.484;11.242;2022-07-11T13:02:53;1.13;;;0.67;;
14125;SDS011;7141;49.484;11.242;2022-07-11T13:05:19;0.60;;;0.50;;
14125;SDS011;7141;49.484;11.242;2022-07-11T13:07:45;0.67;;;0.63;;
14125;SDS011;7141;49.484;11.242;2022-07-11T13:10:29;0.53;;;0.53;;
14125;SDS011;7141;49.484;11.242;2022-07-11T13:13:15;0.50;;;0.50;;
14125;SDS011;7141;49.484;11.242;2022-07-11T13:15:41;0.40;;;0.40;;
14125;SDS011;7141;49.484;11.242;2022-07-11T13:18:07;0.63;;;0.40;;
14125;SDS011;7141;49.484;11.242;2022-07-11T13:20:34;0.43;;;0.40;;
14125;SDS011;7141;49.484;11.242;2022-07-11T13:23:01;0.40;;;0.40;;
14125;SDS011;7141;49.484;11.242;2022-07-11T13:25:27;0.43;;;0.40;;
14125;SDS011;7141;49.484;11.242;2022-07-11T13:27:54;0.40;;;0.40;;
14125;SDS011;7141;49.484;11.242;2022-07-11T13:30:22;0.73;;;0.60;;
14125;SDS011;7141;49.484;11.242;2022-07-11T13:32:51;0.40;;;0.33;;
14125;SDS011;7141;49.484;11.242;2022-07-11T13:35:18;0.30;;;0.30;;
14125;SDS011;7141;49.484;11.242;2022-07-11T13:37:45;0.40;;;0.40;;
14125;SDS011;7141;49.484;11.242;2022-07-11T13:40:12;0.37;;;0.37;;
14125;SDS011;7141;49.484;11.242;2022-07-11T13:42:39;0.50;;;0.50;;
14125;SDS011;7141;49.484;11.242;2022-07-11T13:45:05;0.50;;;0.50;;
14125;SDS011;7141;49.484;11.242;2022-07-11T13:47:32;0.43;;;0.40;;
14125;SDS011;7141;49.484;11.242;2022-07-11T13:49:58;0.63;;;0.50;;
14125;SDS011;7141;49.484;11.242;2022-07-11T13:52:24;0.63;;;0.50;;
14125;SDS011;7141;49.484;11.242;2022-07-11T13:54:50;0.57;;;0.57;;
14125;SDS011;7141;49.484;11.242;2022-07-11T13:57:16;0.77;;;0.63;;
14125;SDS011;7141;49.484;11.242;2022-07-11T13:59:43;0.50;;;0.50;;
14125;SDS011;7141;49.484;11.242;2022-07-11T14:02:09;0.30;;;0.30;;
14125;SDS011;7141;49.484;11.242;2022-07-11T14:04:35;0.80;;;0.50;;
14125;SDS011;7141;49.484;11.242;2022-07-11T14:07:01;0.83;;;0.43;;
14125;SDS011;7141;49.484;11.242;2022-07-11T14:09:27;0.40;;;0.40;;
14125;SDS011;7141;49.484;11.242;2022-07-11T14:11:53;0.53;;;0.53;;
14125;SDS011;7141;49.484;11.242;2022-07-11T14:14:19;0.90;;;0.67;;
14125;SDS011;7141;49.484;11.242;2022-07-11T14:16:45;0.50;;;0.50;;
14125;SDS011;7141;49.484;11.242;2022-07-11T14:19:11;0.50;;;0.50;;
14125;SDS011;7141;49.484;11.242;2022-07-11T14:21:38;0.50;;;0.40;;
14125;SDS011;7141;49.484;11.242;2022-07-11T14:24:04;0.50;;;0.50;;
14125;SDS011;7141;49.484;11.242;2022-07-11T14:26:31;0.60;;;0.60;;
14125;SDS011;7141;49.484;11.242;2022-07-11T14:28:58;0.70;;;0.70;;
14125;SDS011;7141;49.484;11.242;2022-07-11T14:31:24;0.53;;;0.53;;
14125;SDS011;7141;49.484;11.242;2022-07-11T14:33:50;0.40;;;0.40;;
14125;SDS011;7141;49.484;11.242;2022-07-11T14:36:17;0.40;;;0.40;;
14125;SDS011;7141;49.484;11.242;2022-07-11T14:38:43;0.60;;;0.60;;
14125;SDS011;7141;49.484;11.242;2022-07-11T14:41:10;0.80;;;0.80;;
14125;SDS011;7141;49.484;11.242;2022-07-11T14:43:36;0.53;;;0.53;;
14125;SDS011;7141;49.484;11.242;2022-07-11T14:46:02;0.60;;;0.60;;
14125;SDS011;7141;49.484;11.242;2022-07-11T14:48:28;0.57;;;0.57;;
14125;SDS011;7141;49.484;11.242;2022-07-11T14:50:54;1.60;;;0.80;;
14125;SDS011;7141;49.484;11.242;2022-07-11T14:53:20;0.57;;;0.47;;
14125;SDS011;7141;49.484;11.242;2022-07-11T14:55:46;0.50;;;0.50;;
14125;SDS011;7141;49.484;11.242;2022-07-11T14:58:12;0.90;;;0.57;;
14125;SDS011;7141;49.484;11.242;2022-07-11T15:00:38;0.70;;;0.70;;
14125;SDS011;7141;49.484;11.242;2022-07-11T15:03:04;0.87;;;0.87;;
14125;SDS011;7141;49.484;11.242;2022-07-11T15:05:52;0.50;;;0.50;;
14125;SDS011;7141;49.484;11.242;2022-07-11T15:08:18;0.50;;;0.50;;
14125;SDS011;7141;49.484;11.242;2022-07-11T15:11:03;0.60;;;0.60;;
14125;SDS011;7141;49.484;11.242;2022-07-11T15:13:47;0.47;;;0.47;;
14125;SDS011;7141;49.484;11.242;2022-07-11T15:16:13;0.73;;;0.73;;
14125;SDS011;7141;49.484;11.242;2022-07-11T15:18:39;0.60;;;0.60;;
14125;SDS011;7141;49.484;11.242;2022-07-11T15:21:06;1.00;;;0.60;;